Time;durP1;ratioP1;P1;durP2;ratioP2;P2;SDS_P1;SDS_P2;PMS_P1;PMS_P2;Temp;Humidity;BMP_temperature;BMP_pressure;BME280_temperature;BME280_humidity;BME280_pressure;Samples;Min_cycle;Max_cycle;Signal;HPM_P1;HPM_P2
2022/10/30 00:02:23;;;;;;;7.80;3.60;;;;;;;18.22;38.05;101338.22;4965745;29;20040;-82
2022/10/30 00:04:51;;;;;;;7.60;3.80;;;;;;;18.22;38.62;101345.66;4950508;29;20062;-83
2022/10/30 00:07:19;;;;;;;7.18;3.83;;;;;;;18.22;38.73;101349.28;4965337;28;20064;-83
2022/10/30 00:09:48;;;;;;;7.18;3.55;;;;;;;18.25;38.32;101342.53;4964105;29;20043;-83
2022/10/30 00:12:16;;;;;;;7.15;3.60;;;;;;;18.23;38.31;101352.91;4945211;29;20443;-82
2022/10/30 00:14:44;;;;;;;7.22;3.40;;;;;;;18.23;38.76;101352.91;4958738;28;20083;-83
2022/10/30 00:17:11;;;;;;;6.25;3.67;;;;;;;18.22;38.51;101351.19;4949493;29;20047;-82
2022/10/30 00:19:39;;;;;;;8.52;3.47;;;;;;;18.23;38.78;101339.06;4966749;29;20051;-83
2022/10/30 00:22:07;;;;;;;5.95;3.22;;;;;;;18.25;38.56;101353.59;4966563;29;20257;-83
2022/10/30 00:24:34;;;;;;;5.20;3.50;;;;;;;18.24;38.48;101344.44;4958554;29;20059;-82
2022/10/30 00:27:03;;;;;;;6.70;3.80;;;;;;;18.26;38.42;101341.50;4946695;29;20052;-83
2022/10/30 00:29:31;;;;;;;8.10;3.60;;;;;;;18.25;38.41;101345.28;4949044;29;20051;-82
2022/10/30 00:31:58;;;;;;;5.82;3.55;;;;;;;18.25;39.02;101348.06;4949204;28;20039;-83
2022/10/30 00:34:26;;;;;;;5.20;3.45;;;;;;;18.26;38.56;101358.09;4962986;28;20044;-83
2022/10/30 00:36:54;;;;;;;6.45;3.65;;;;;;;18.26;39.15;101355.34;4948726;28;20313;-83
2022/10/30 00:39:22;;;;;;;6.40;3.58;;;;;;;18.26;38.92;101356.22;4948651;29;20056;-82
2022/10/30 00:41:50;;;;;;;8.10;3.53;;;;;;;18.27;38.77;101355.19;4946294;29;20318;-82
2022/10/30 00:44:45;;;;;;;5.85;3.58;;;;;;;18.26;38.85;101352.56;4946281;29;20083;-82
2022/10/30 00:47:19;;;;;;;6.55;3.55;;;;;;;18.28;38.88;101344.97;4944858;29;20048;-82
2022/10/30 00:49:55;;;;;;;7.07;3.78;;;;;;;18.28;38.69;101337.50;4944637;29;20467;-82
2022/10/30 00:52:27;;;;;;;5.30;3.28;;;;;;;18.27;38.91;101334.91;4943225;29;20074;-82
2022/10/30 00:54:57;;;;;;;6.05;3.35;;;;;;;18.24;39.16;101338.88;4936267;29;20110;-82
2022/10/30 00:57:26;;;;;;;6.68;3.92;;;;;;;18.24;38.67;101343.56;4951022;28;20134;-83
2022/10/30 00:59:56;;;;;;;8.50;3.60;;;;;;;18.25;38.91;101346.16;4950990;29;20103;-82
2022/10/30 01:02:24;;;;;;;8.23;3.63;;;;;;;18.24;38.75;101349.09;4933863;28;20052;-82
2022/10/30 01:04:53;;;;;;;7.82;3.78;;;;;;;18.23;39.08;101345.47;4951104;28;20044;-82
2022/10/30 01:07:24;;;;;;;8.13;4.00;;;;;;;18.23;39.23;101348.22;4948811;28;20058;-82
2022/10/30 01:09:52;;;;;;;6.90;3.60;;;;;;;18.22;39.24;101342.88;4949971;29;20102;-82
2022/10/30 01:12:20;;;;;;;7.28;3.67;;;;;;;18.22;39.00;101348.44;4949205;29;20047;-82
2022/10/30 01:14:53;;;;;;;5.78;3.50;;;;;;;18.23;39.30;101351.00;4934585;29;20130;-82
2022/10/30 01:17:47;;;;;;;5.90;3.45;;;;;;;18.23;38.86;101344.59;4933361;29;20048;-82
2022/10/30 01:20:31;;;;;;;6.43;3.15;;;;;;;18.23;38.99;101344.59;4949777;29;20099;-82
2022/10/30 01:23:10;;;;;;;7.00;3.30;;;;;;;18.23;39.27;101339.06;4944631;29;20073;-82
2022/10/30 01:25:52;;;;;;;7.28;3.50;;;;;;;18.22;38.85;101342.88;4940525;29;20047;-82
2022/10/30 01:28:37;;;;;;;6.85;4.03;;;;;;;18.20;39.06;101344.97;4928887;29;20059;-83
2022/10/30 01:31:21;;;;;;;7.55;3.60;;;;;;;18.20;39.34;101340.28;4933747;29;20513;-83
2022/10/30 01:34:06;;;;;;;7.00;3.63;;;;;;;18.19;39.19;101349.63;4949984;28;20104;-83
2022/10/30 01:36:39;;;;;;;6.00;3.50;;;;;;;18.18;38.97;101353.44;4953521;28;20047;-83
2022/10/30 01:39:12;;;;;;;6.47;3.80;;;;;;;18.19;39.06;101357.94;4950898;29;20047;-82
2022/10/30 01:41:41;;;;;;;5.57;3.50;;;;;;;18.15;39.37;101348.22;4957465;23;20054;-72
2022/10/30 01:44:14;;;;;;;7.07;3.70;;;;;;;18.17;39.17;101345.28;4939784;28;20049;-73
2022/10/30 01:46:56;;;;;;;6.78;3.60;;;;;;;18.16;39.42;101344.41;4949401;28;20055;-73
2022/10/30 01:49:59;;;;;;;7.50;3.90;;;;;;;18.11;39.28;101344.94;4941075;28;20215;-72
2022/10/30 01:52:36;;;;;;;8.90;3.90;;;;;;;18.09;39.39;101322.09;4957132;28;20067;-72
2022/10/30 01:55:12;;;;;;;7.10;3.58;;;;;;;18.10;39.61;101328.50;4957067;28;20117;-73
2022/10/30 01:57:49;;;;;;;5.47;3.42;;;;;;;18.09;39.03;101338.72;4944173;29;20134;-71
2022/10/30 02:00:19;;;;;;;5.93;3.50;;;;;;;18.06;39.48;101339.03;4946408;29;20047;-71
2022/10/30 02:02:49;;;;;;;9.27;3.60;;;;;;;18.05;39.25;101342.88;4958544;28;20048;-71
2022/10/30 02:05:30;;;;;;;6.18;3.60;;;;;;;18.06;39.16;101327.97;4955634;28;20427;-71
2022/10/30 02:07:57;;;;;;;7.15;3.97;;;;;;;18.01;39.02;101335.94;4941916;29;20054;-71
2022/10/30 02:10:27;;;;;;;5.57;3.33;;;;;;;18.01;39.19;101332.28;4943856;28;20074;-71
2022/10/30 02:12:55;;;;;;;6.03;3.63;;;;;;;17.99;39.53;101326.06;4947415;28;20058;-72
2022/10/30 02:15:24;;;;;;;8.13;4.00;;;;;;;17.97;39.63;101322.63;4937055;28;21231;-71
2022/10/30 02:17:56;;;;;;;7.10;4.07;;;;;;;17.97;39.36;101319.84;4964052;28;20047;-71
2022/10/30 02:20:26;;;;;;;7.80;3.88;;;;;;;17.95;39.55;101310.84;4956290;28;20052;-71
2022/10/30 02:22:54;;;;;;;5.97;3.65;;;;;;;17.91;39.20;101321.38;4943543;28;20059;-71
2022/10/30 02:25:30;;;;;;;7.72;4.00;;;;;;;17.90;39.14;101316.00;4941802;28;20889;-71
2022/10/30 02:27:58;;;;;;;7.25;3.63;;;;;;;17.88;39.21;101332.81;4956242;28;20047;-71
2022/10/30 02:30:28;;;;;;;5.63;3.53;;;;;;;17.87;39.33;101332.97;4945908;28;20050;-71
2022/10/30 02:32:56;;;;;;;6.90;3.60;;;;;;;17.85;39.40;101335.03;4948892;28;20110;-71
2022/10/30 02:35:25;;;;;;;6.70;3.75;;;;;;;17.86;39.72;101336.78;4948249;28;20043;-71
2022/10/30 02:37:53;;;;;;;6.85;4.18;;;;;;;17.83;39.82;101331.56;4949330;28;20050;-71
2022/10/30 02:40:21;;;;;;;6.88;4.13;;;;;;;17.81;39.60;101340.06;4948843;28;20098;-70
2022/10/30 02:42:53;;;;;;;7.80;3.90;;;;;;;17.82;39.29;101336.25;4963350;28;20051;-71
2022/10/30 02:45:21;;;;;;;8.48;4.30;;;;;;;17.78;39.36;101326.56;4949271;28;20039;-71
2022/10/30 02:47:49;;;;;;;8.02;4.20;;;;;;;17.77;39.88;101324.81;4963741;28;20051;-71
2022/10/30 02:50:17;;;;;;;5.43;3.70;;;;;;;17.75;39.82;101324.13;4939945;28;20051;-71
2022/10/30 02:52:47;;;;;;;8.52;4.20;;;;;;;17.75;39.86;101324.13;4937510;28;20580;-70
2022/10/30 02:55:15;;;;;;;8.00;3.63;;;;;;;17.71;39.66;101319.94;4940917;28;21380;-70
2022/10/30 02:57:42;;;;;;;5.40;3.55;;;;;;;17.69;39.51;101322.00;4959967;28;20530;-70
2022/10/30 03:00:12;;;;;;;7.22;3.75;;;;;;;17.68;39.41;101325.81;4946844;28;20065;-71
2022/10/30 03:02:40;;;;;;;7.38;4.15;;;;;;;17.66;39.45;101330.63;4961087;28;20051;-69
2022/10/30 03:05:08;;;;;;;7.88;3.83;;;;;;;17.64;39.92;101344.69;4957547;28;20051;-71
2022/10/30 03:07:36;;;;;;;5.63;3.55;;;;;;;17.62;39.55;101332.91;4945988;29;20051;-70
2022/10/30 03:10:05;;;;;;;7.40;4.00;;;;;;;17.64;39.45;101329.97;4944434;28;20071;-71
2022/10/30 03:12:33;;;;;;;8.15;3.88;;;;;;;17.60;39.54;101325.78;4947144;29;20058;-70
2022/10/30 03:15:01;;;;;;;8.20;4.00;;;;;;;17.59;40.13;101329.59;4946273;28;20408;-71
2022/10/30 03:17:30;;;;;;;7.28;3.95;;;;;;;17.59;40.05;101343.44;4961288;28;20523;-71
2022/10/30 03:19:58;;;;;;;6.68;3.65;;;;;;;17.55;39.86;101342.03;4942597;28;20043;-70
2022/10/30 03:22:25;;;;;;;8.23;3.83;;;;;;;17.53;39.85;101344.97;4941070;29;20700;-71
2022/10/30 03:24:53;;;;;;;7.60;4.10;;;;;;;17.52;39.94;101345.13;4947029;28;20039;-71
2022/10/30 03:27:22;;;;;;;6.90;3.70;;;;;;;17.51;39.70;101333.19;4935077;28;20614;-71
2022/10/30 03:29:50;;;;;;;5.35;3.72;;;;;;;17.49;40.17;101342.69;4941846;29;20078;-71
2022/10/30 03:32:18;;;;;;;7.45;3.85;;;;;;;17.48;40.29;101344.63;4961607;28;20420;-70
2022/10/30 03:34:51;;;;;;;;;;;;;;;17.19;40.64;101342.25;4935579;28;20055;-71
2022/10/30 03:37:19;;;;;;;7.53;3.70;;;;;;;17.40;39.75;101339.06;4946443;29;20378;-71
2022/10/30 03:39:46;;;;;;;6.93;3.90;;;;;;;17.41;39.97;101340.78;4938487;28;20043;-70
2022/10/30 03:42:14;;;;;;;6.38;3.92;;;;;;;17.40;39.86;101341.84;4943399;28;20078;-70
2022/10/30 03:44:44;;;;;;;6.57;3.90;;;;;;;17.39;39.93;101346.50;4936338;29;20043;-70
2022/10/30 03:47:12;;;;;;;5.35;3.90;;;;;;;17.35;40.42;101347.84;4957516;28;20051;-71
2022/10/30 03:49:43;;;;;;;6.32;3.78;;;;;;;17.33;40.00;101343.50;4938966;29;20114;-70
2022/10/30 03:52:14;;;;;;;7.15;3.85;;;;;;;17.31;40.31;101342.84;4959944;28;20040;-70
2022/10/30 03:54:41;;;;;;;9.20;4.22;;;;;;;17.29;39.98;101356.81;4943246;28;20075;-71
2022/10/30 03:57:13;;;;;;;7.97;3.90;;;;;;;17.26;40.18;101359.91;4937181;29;20578;-71
2022/10/30 04:00:00;;;;;;;6.95;3.60;;;;;;;17.24;39.86;101361.09;4945355;28;20841;-70
2022/10/30 04:02:44;;;;;;;9.05;4.57;;;;;;;17.21;40.23;101354.03;4940772;28;20043;-71
2022/10/30 04:05:14;;;;;;;7.45;4.32;;;;;;;17.17;40.40;101352.59;4947391;29;20040;-70
2022/10/30 04:07:42;;;;;;;5.97;3.97;;;;;;;17.15;40.30;101356.59;4945349;28;20047;-71
2022/10/30 04:10:10;;;;;;;7.18;4.30;;;;;;;17.13;39.99;101359.50;4938285;28;20111;-70
2022/10/30 04:12:38;;;;;;;7.68;4.65;;;;;;;17.10;40.13;101359.84;4930521;28;20051;-71
2022/10/30 04:15:09;;;;;;;5.90;3.70;;;;;;;17.11;40.36;101360.69;4963565;28;20051;-71
2022/10/30 04:17:37;;;;;;;6.97;4.00;;;;;;;17.05;40.03;101362.25;4970463;28;20054;-73
2022/10/30 04:20:06;;;;;;;6.93;3.72;;;;;;;17.05;40.13;101364.13;4942453;28;20040;-69
2022/10/30 04:22:34;;;;;;;7.07;3.50;;;;;;;17.00;40.57;101365.47;4950286;28;20134;-72
2022/10/30 04:25:02;;;;;;;6.03;3.97;;;;;;;16.97;40.17;101368.59;4967326;28;20130;-72
2022/10/30 04:27:30;;;;;;;6.57;4.07;;;;;;;16.96;40.72;101358.53;4949948;29;20086;-72
2022/10/30 04:29:58;;;;;;;6.75;4.00;;;;;;;16.94;40.74;101365.25;4957599;28;20378;-72
2022/10/30 04:32:28;;;;;;;8.05;4.15;;;;;;;16.91;40.66;101365.56;4963271;28;20098;-72
2022/10/30 04:34:56;;;;;;;7.32;3.95;;;;;;;16.86;40.34;101371.59;4940118;28;20048;-70
2022/10/30 04:37:25;;;;;;;7.97;4.20;;;;;;;16.83;40.61;101371.91;4948474;29;20134;-72
2022/10/30 04:39:52;;;;;;;6.82;4.03;;;;;;;16.80;40.82;101361.19;4965472;28;20054;-71
2022/10/30 04:42:25;;;;;;;;;;;;;;;16.51;40.93;101364.25;4946302;29;20070;-71
2022/10/30 04:44:53;;;;;;;7.60;3.60;;;;;;;16.71;40.48;101362.16;4939420;28;20001;-73
2022/10/30 04:47:21;;;;;;;10.05;4.82;;;;;;;16.71;40.42;101353.88;4937809;28;20412;-70
2022/10/30 04:49:50;;;;;;;9.93;4.20;;;;;;;16.72;40.80;101350.09;4961075;28;20052;-70
2022/10/30 04:52:18;;;;;;;6.22;3.92;;;;;;;16.67;40.98;101346.91;4961804;28;20051;-70
2022/10/30 04:54:46;;;;;;;7.78;3.97;;;;;;;16.65;41.06;101346.25;4940234;28;20487;-71
2022/10/30 04:57:14;;;;;;;7.45;3.67;;;;;;;16.63;40.72;101342.75;4955811;28;20050;-71
2022/10/30 04:59:43;;;;;;;10.27;4.13;;;;;;;16.61;40.88;101342.91;4950699;29;20220;-71
2022/10/30 05:02:11;;;;;;;6.25;3.55;;;;;;;16.59;40.97;101341.34;4946545;28;20523;-70
2022/10/30 05:04:39;;;;;;;6.97;4.30;;;;;;;16.57;41.16;101347.06;4943459;29;20074;-70
2022/10/30 05:07:08;;;;;;;7.25;4.28;;;;;;;16.57;40.66;101351.72;4943738;28;20047;-71
2022/10/30 05:09:36;;;;;;;7.90;4.35;;;;;;;16.53;40.77;101342.88;4950373;28;20054;-71
2022/10/30 05:12:04;;;;;;;6.82;3.75;;;;;;;16.51;41.37;101344.03;4940901;28;20064;-70
2022/10/30 05:14:39;;;;;;;6.60;4.28;;;;;;;16.48;40.80;101330.56;4942201;28;20101;-71
2022/10/30 05:17:07;;;;;;;7.38;4.00;;;;;;;16.45;41.11;101331.75;4947198;28;20488;-71
2022/10/30 05:19:35;;;;;;;6.63;3.78;;;;;;;16.44;41.21;101332.78;4947097;28;20102;-70
2022/10/30 05:22:03;;;;;;;8.60;4.20;;;;;;;16.43;41.41;101332.94;4955310;28;20043;-71
2022/10/30 05:24:32;;;;;;;7.47;4.07;;;;;;;16.43;41.08;101332.94;4959615;28;20059;-71
2022/10/30 05:27:00;;;;;;;8.50;4.07;;;;;;;16.40;41.19;101331.38;4951838;28;20491;-71
2022/10/30 05:29:30;;;;;;;8.68;4.82;;;;;;;16.38;40.98;101338.09;4952099;28;20380;-70
2022/10/30 05:31:58;;;;;;;7.85;4.03;;;;;;;16.37;41.53;101328.06;4953746;28;20242;-71
2022/10/30 05:34:36;;;;;;;6.97;4.28;;;;;;;16.34;41.14;101320.94;4948082;29;20047;-71
2022/10/30 05:37:04;;;;;;;7.93;3.83;;;;;;;16.33;41.09;101318.38;4962591;28;20043;-71
2022/10/30 05:39:34;;;;;;;6.75;4.07;;;;;;;16.33;41.11;101316.44;4945333;29;20035;-71
2022/10/30 05:42:03;;;;;;;8.45;4.10;;;;;;;16.29;41.55;101308.66;4934673;29;20039;-71
2022/10/30 05:44:42;;;;;;;8.43;3.90;;;;;;;16.25;41.13;101306.22;4949079;29;20071;-71
2022/10/30 05:47:34;;;;;;;5.93;3.83;;;;;;;16.22;41.60;101297.41;4940611;29;20126;-71
2022/10/30 05:50:02;;;;;;;8.35;3.92;;;;;;;16.22;41.35;101306.56;4964505;28;20070;-71
2022/10/30 05:52:30;;;;;;;7.45;4.47;;;;;;;16.21;41.58;101313.09;4948671;28;20065;-70
2022/10/30 05:55:00;;;;;;;7.45;4.40;;;;;;;16.22;41.17;101323.13;4951995;28;20555;-71
2022/10/30 05:57:55;;;;;;;6.97;3.65;;;;;;;16.20;41.63;101318.78;4943678;28;20076;-71
2022/10/30 06:00:24;;;;;;;6.93;3.85;;;;;;;16.18;41.61;101323.59;4965176;28;20074;-71
2022/10/30 06:02:52;;;;;;;6.13;4.03;;;;;;;16.17;41.23;101327.38;4948823;28;20144;-69
2022/10/30 06:05:20;;;;;;;7.63;3.95;;;;;;;16.15;41.77;101316.47;4940061;28;20424;-71
2022/10/30 06:07:48;;;;;;;8.05;4.20;;;;;;;16.14;41.22;101322.16;4946527;29;20147;-71
2022/10/30 06:10:17;;;;;;;6.95;4.15;;;;;;;16.14;41.14;101334.06;4959253;28;20089;-71
2022/10/30 06:13:03;;;;;;;7.35;3.72;;;;;;;16.11;41.13;101333.50;4944288;29;20067;-71
2022/10/30 06:15:55;;;;;;;6.35;3.70;;;;;;;16.08;41.59;101336.59;4959271;28;20050;-72
2022/10/30 06:18:24;;;;;;;6.32;4.20;;;;;;;16.07;41.35;101329.34;4944180;29;20044;-71
2022/10/30 06:20:55;;;;;;;6.40;4.03;;;;;;;16.07;41.41;101334.88;4947958;28;20035;-71
2022/10/30 06:23:30;;;;;;;6.07;4.10;;;;;;;16.04;41.31;101335.16;4945894;29;20414;-71
2022/10/30 06:26:30;;;;;;;;;;;;;;;15.74;42.00;101340.06;4943352;28;20036;-71
2022/10/30 06:29:04;;;;;;;6.85;3.65;;;;;;;15.96;41.43;101333.19;4964433;28;19922;-71
2022/10/30 06:31:32;;;;;;;6.10;3.28;;;;;;;16.00;41.38;101342.03;4953617;28;20043;-70
2022/10/30 06:34:01;;;;;;;8.18;3.90;;;;;;;16.00;41.73;101342.03;4953710;28;20146;-70
2022/10/30 06:36:31;;;;;;;6.07;3.80;;;;;;;15.97;41.64;101342.34;4941371;28;20051;-71
2022/10/30 06:38:59;;;;;;;5.78;3.80;;;;;;;15.97;41.34;101339.59;4956885;28;20094;-71
2022/10/30 06:41:35;;;;;;;7.35;4.47;;;;;;;15.96;41.38;101341.47;4953829;28;20527;-71
2022/10/30 06:44:22;;;;;;;6.88;4.20;;;;;;;15.91;41.31;101340.22;4948950;29;20058;-71
2022/10/30 06:46:52;;;;;;;7.03;4.45;;;;;;;15.94;41.38;101345.41;4953385;28;20050;-71
2022/10/30 06:49:20;;;;;;;7.45;4.13;;;;;;;15.91;41.94;101343.00;4954557;28;20044;-71
2022/10/30 06:51:50;;;;;;;7.32;4.28;;;;;;;15.90;41.58;101344.88;4942142;28;20466;-72
2022/10/30 06:54:18;;;;;;;6.82;3.75;;;;;;;15.88;41.57;101355.19;4935589;29;20524;-74
2022/10/30 06:56:56;;;;;;;8.73;4.22;;;;;;;15.87;41.41;101359.84;4935395;28;20055;-71
2022/10/30 06:59:52;;;;;;;7.30;3.92;;;;;;;15.84;42.12;101359.28;4956547;28;20531;-71
2022/10/30 07:02:33;;;;;;;5.30;3.65;;;;;;;15.84;41.74;101357.41;4958487;28;20043;-72
2022/10/30 07:05:06;;;;;;;7.20;3.78;;;;;;;15.83;41.86;101361.22;4955525;28;20564;-72
2022/10/30 07:07:34;;;;;;;8.07;4.03;;;;;;;15.86;41.81;101360.88;4960617;28;20067;-71
2022/10/30 07:10:02;;;;;;;7.93;4.22;;;;;;;15.88;42.33;101356.06;4946202;29;20071;-71
2022/10/30 07:12:55;;;;;;;8.25;4.05;;;;;;;15.91;42.04;101357.66;4937338;29;20060;-72
2022/10/30 07:15:50;;;;;;;8.52;4.13;;;;;;;15.87;41.83;101353.47;4946015;28;20059;-71
2022/10/30 07:18:24;;;;;;;7.75;4.03;;;;;;;15.89;41.86;101348.66;4944241;28;20095;-72
2022/10/30 07:20:56;;;;;;;7.68;4.40;;;;;;;15.88;42.09;101352.44;4944406;28;20070;-73
2022/10/30 07:23:25;;;;;;;7.05;4.25;;;;;;;15.91;41.83;101349.38;4946823;29;20445;-72
2022/10/30 07:25:59;;;;;;;5.35;3.90;;;;;;;15.91;42.09;101352.16;4954843;28;20123;-72
2022/10/30 07:28:41;;;;;;;8.18;3.72;;;;;;;15.95;42.44;101352.69;4946009;28;20057;-72
2022/10/30 07:31:20;;;;;;;9.48;4.80;;;;;;;15.92;42.14;101350.25;4957860;28;20133;-73
2022/10/30 07:34:11;;;;;;;6.70;3.90;;;;;;;15.92;41.99;101345.56;4944499;29;20051;-73
2022/10/30 07:36:43;;;;;;;8.32;4.82;;;;;;;15.91;42.33;101352.16;4940046;29;20118;-73
2022/10/30 07:39:24;;;;;;;7.13;4.05;;;;;;;15.94;42.11;101343.53;4945032;29;20047;-72
2022/10/30 07:42:04;;;;;;;9.10;4.35;;;;;;;15.95;42.31;101349.91;4940331;29;20058;-72
2022/10/30 07:44:56;;;;;;;6.50;3.90;;;;;;;15.98;42.17;101344.97;4942799;29;20492;-73
2022/10/30 07:47:39;;;;;;;7.97;4.18;;;;;;;16.00;42.26;101359.44;4957549;28;20051;-73
2022/10/30 07:50:29;;;;;;;6.97;3.50;;;;;;;15.98;42.17;101353.25;4964862;28;20046;-73
2022/10/30 07:52:58;;;;;;;6.60;4.03;;;;;;;16.03;42.14;101359.16;4935589;28;20079;-72
2022/10/30 07:55:28;;;;;;;7.75;4.00;;;;;;;16.04;42.68;101358.13;4959310;28;20133;-73
2022/10/30 07:58:14;;;;;;;8.27;4.38;;;;;;;16.06;42.14;101352.44;4947530;28;20047;-72
2022/10/30 08:01:12;;;;;;;6.50;3.67;;;;;;;16.08;42.71;101359.56;4914874;29;20087;-73
2022/10/30 08:03:42;;;;;;;8.23;4.43;;;;;;;16.10;42.21;101362.13;4946236;28;20493;-73
2022/10/30 08:06:14;;;;;;;7.78;3.78;;;;;;;16.11;42.48;101352.81;4945457;29;20580;-71
2022/10/30 08:08:43;;;;;;;5.78;3.58;;;;;;;16.14;42.22;101345.09;4949106;28;20118;-75
2022/10/30 08:11:20;;;;;;;7.15;4.20;;;;;;;16.16;42.77;101350.47;4963889;28;20074;-73
2022/10/30 08:13:48;;;;;;;9.18;4.15;;;;;;;16.19;42.30;101353.81;4964036;28;20164;-71
2022/10/30 08:16:19;;;;;;;7.40;4.45;;;;;;;16.22;42.28;101356.25;4960641;28;20148;-73
2022/10/30 08:18:47;;;;;;;6.40;4.10;;;;;;;16.24;42.65;101361.63;4951968;28;20093;-73
2022/10/30 08:21:15;;;;;;;8.05;4.00;;;;;;;16.26;42.50;101346.63;4958603;28;20039;-74
2022/10/30 08:23:54;;;;;;;7.97;4.07;;;;;;;16.30;42.38;101347.19;4960330;28;20500;-73
2022/10/30 08:26:23;;;;;;;6.00;4.10;;;;;;;16.33;42.87;101349.59;4962018;28;20047;-73
2022/10/30 08:28:51;;;;;;;8.35;4.05;;;;;;;16.38;42.63;101344.47;4965522;23;20491;-70
2022/10/30 08:31:20;;;;;;;7.43;3.70;;;;;;;16.44;42.42;101335.53;4949333;28;20082;-70
2022/10/30 08:34:00;;;;;;;7.15;3.75;;;;;;;16.47;42.77;101331.59;4948627;28;20106;-70
2022/10/30 08:36:34;;;;;;;6.95;3.70;;;;;;;16.54;42.69;101330.78;4942934;29;20040;-70
2022/10/30 08:39:03;;;;;;;6.22;3.85;;;;;;;16.60;42.61;101337.53;4943607;28;20103;-70
2022/10/30 08:41:41;;;;;;;7.90;3.85;;;;;;;16.67;42.91;101335.88;4920849;29;20084;-70
2022/10/30 08:44:10;;;;;;;7.38;3.85;;;;;;;16.75;42.46;101335.03;4914231;29;20048;-70
2022/10/30 08:47:01;;;;;;;7.22;3.67;;;;;;;16.83;42.31;101338.72;4929852;29;20039;-70
2022/10/30 08:49:29;;;;;;;6.88;4.05;;;;;;;16.89;42.72;101329.81;4924938;29;20083;-71
2022/10/30 08:51:59;;;;;;;7.60;4.30;;;;;;;16.97;42.65;101338.19;4926879;29;20151;-70
2022/10/30 08:54:27;;;;;;;6.65;3.83;;;;;;;17.07;42.40;101340.81;4913959;29;20056;-70
2022/10/30 08:56:55;;;;;;;6.38;3.55;;;;;;;17.16;42.26;101334.28;4919589;29;20051;-70
2022/10/30 08:59:24;;;;;;;7.30;3.90;;;;;;;17.25;42.56;101329.63;4922209;29;20111;-70
2022/10/30 09:01:54;;;;;;;7.40;3.58;;;;;;;17.35;42.21;101330.38;4919359;29;20130;-70
2022/10/30 09:04:24;;;;;;;6.53;3.60;;;;;;;17.47;42.39;101329.06;4927247;29;20067;-70
2022/10/30 09:07:10;;;;;;;7.57;3.92;;;;;;;17.54;42.32;101332.88;4925357;29;20050;-71
2022/10/30 09:10:03;;;;;;;7.40;3.65;;;;;;;17.66;41.96;101336.19;4918444;29;20130;-70
2022/10/30 09:12:33;;;;;;;7.70;3.53;;;;;;;17.77;41.73;101331.22;4925889;29;20043;-70
2022/10/30 09:15:01;;;;;;;5.90;3.90;;;;;;;17.88;41.89;101330.03;4931560;29;20048;-68
2022/10/30 09:17:31;;;;;;;7.68;3.85;;;;;;;17.98;41.87;101322.41;4945854;29;20401;-68
2022/10/30 09:20:00;;;;;;;6.82;4.25;;;;;;;18.11;41.55;101319.16;4924464;29;20484;-68
2022/10/30 09:22:39;;;;;;;8.40;3.50;;;;;;;18.19;41.10;101305.31;4921347;29;20131;-69
2022/10/30 09:25:08;;;;;;;6.60;3.75;;;;;;;18.30;41.22;101310.50;4912815;29;20099;-68
2022/10/30 09:27:48;;;;;;;5.90;3.53;;;;;;;18.39;41.12;101301.13;4911768;29;20056;-68
2022/10/30 09:30:18;;;;;;;6.15;3.60;;;;;;;18.49;41.17;101298.19;4913018;29;20116;-68
2022/10/30 09:32:55;;;;;;;7.35;4.00;;;;;;;18.62;40.28;101303.22;4942365;29;20100;-68
2022/10/30 09:35:33;;;;;;;6.13;3.60;;;;;;;18.70;40.52;101295.75;4930424;29;20491;-67
2022/10/30 09:38:01;;;;;;;7.15;3.90;;;;;;;18.78;40.56;101298.50;4916004;29;20060;-67
2022/10/30 09:40:41;;;;;;;7.28;4.10;;;;;;;18.89;39.89;101298.09;4927677;29;20051;-67
2022/10/30 09:43:25;;;;;;;6.00;3.22;;;;;;;18.99;40.37;101299.81;4933569;29;20044;-64
2022/10/30 09:46:05;;;;;;;7.10;3.78;;;;;;;19.07;39.50;101299.78;4919779;29;20075;-65
2022/10/30 09:48:53;;;;;;;5.95;3.40;;;;;;;19.16;39.59;101299.56;4923478;29;20513;-65
2022/10/30 09:51:42;;;;;;;7.50;3.50;;;;;;;19.23;39.44;101297.81;4917346;29;20036;-65
2022/10/30 09:54:20;;;;;;;6.88;3.97;;;;;;;19.32;39.97;101300.56;4941813;28;20051;-64
2022/10/30 09:56:58;;;;;;;5.57;3.40;;;;;;;19.40;39.97;101306.06;4940633;28;20052;-65
2022/10/30 09:59:42;;;;;;;6.88;3.75;;;;;;;19.49;39.70;101307.75;4933022;29;20048;-62
2022/10/30 10:02:21;;;;;;;6.82;3.25;;;;;;;19.57;39.28;101303.03;4919911;28;20069;-65
2022/10/30 10:04:52;;;;;;;7.18;3.47;;;;;;;19.66;39.71;101306.63;4915723;29;20054;-66
2022/10/30 10:07:48;;;;;;;6.22;3.60;;;;;;;19.74;39.60;101314.03;4920112;29;20069;-65
2022/10/30 10:10:39;;;;;;;6.78;3.30;;;;;;;19.85;39.56;101303.38;4935321;28;20051;-65
2022/10/30 10:13:24;;;;;;;6.00;3.20;;;;;;;19.94;39.34;101299.53;4923165;29;20048;-66
2022/10/30 10:15:56;;;;;;;6.43;3.58;;;;;;;20.04;39.26;101298.41;4925115;29;20051;-66
2022/10/30 10:18:29;;;;;;;6.68;3.53;;;;;;;20.10;39.37;101298.53;4923171;29;20051;-65
2022/10/30 10:21:10;;;;;;;6.22;3.63;;;;;;;20.22;39.20;101302.56;4923832;29;20031;-63
2022/10/30 10:23:47;;;;;;;8.07;3.83;;;;;;;20.29;38.33;101291.56;4920658;29;20084;-65
2022/10/30 10:26:31;;;;;;;5.05;3.42;;;;;;;20.35;38.74;101299.19;4926375;29;20048;-65
2022/10/30 10:29:20;;;;;;;5.20;3.28;;;;;;;20.44;38.35;101299.97;4925977;29;20068;-65
2022/10/30 10:32:01;;;;;;;7.05;3.47;;;;;;;20.49;38.11;101295.56;4914578;28;20123;-64
2022/10/30 10:34:54;;;;;;;7.38;3.50;;;;;;;20.54;38.29;101292.19;4917437;29;20040;-65
2022/10/30 10:37:35;;;;;;;6.30;3.90;;;;;;;20.62;37.99;101301.34;4918633;29;20048;-66
2022/10/30 10:40:18;;;;;;;6.63;3.55;;;;;;;20.67;37.80;101286.91;4926742;29;20068;-63
2022/10/30 10:43:05;;;;;;;7.68;3.65;;;;;;;20.71;37.28;101297.44;4913212;29;20083;-64
2022/10/30 10:45:43;;;;;;;5.95;3.42;;;;;;;20.76;37.40;101288.53;4917256;29;20044;-65
2022/10/30 10:48:35;;;;;;;6.90;3.58;;;;;;;20.79;36.98;101290.91;4923567;28;20079;-65
2022/10/30 10:51:07;;;;;;;5.67;3.30;;;;;;;20.78;37.51;101290.03;4922914;29;20063;-65
2022/10/30 10:53:42;;;;;;;6.95;3.35;;;;;;;20.83;37.06;101288.63;4912183;29;20324;-64
2022/10/30 10:56:13;;;;;;;6.32;3.58;;;;;;;20.85;37.14;101290.16;4928984;29;20051;-65
2022/10/30 10:58:49;;;;;;;7.40;3.40;;;;;;;20.86;36.40;101283.53;4924753;29;20058;-66
2022/10/30 11:01:21;;;;;;;6.10;3.40;;;;;;;20.86;36.68;101274.34;4923568;29;20517;-65
2022/10/30 11:03:56;;;;;;;6.72;3.35;;;;;;;20.84;36.45;101274.53;4922498;29;20544;-65
2022/10/30 11:06:27;;;;;;;7.90;3.80;;;;;;;20.86;36.62;101285.47;4921533;28;20485;-66
2022/10/30 11:09:03;;;;;;;7.10;3.35;;;;;;;20.87;36.31;101279.69;4918512;29;20103;-65
2022/10/30 11:11:33;;;;;;;7.18;2.90;;;;;;;20.87;36.85;101284.38;4927610;29;20048;-66
2022/10/30 11:14:00;;;;;;;5.80;3.58;;;;;;;20.86;36.74;101279.91;4931503;29;20040;-67
2022/10/30 11:16:35;;;;;;;6.13;3.55;;;;;;;20.88;36.31;101275.84;4928821;29;20051;-67
2022/10/30 11:19:07;;;;;;;5.55;2.95;;;;;;;20.88;36.72;101277.78;4916252;29;20095;-66
2022/10/30 11:21:45;;;;;;;7.25;3.20;;;;;;;20.88;35.92;101267.50;4922699;29;20333;-67
2022/10/30 11:24:27;;;;;;;6.57;3.53;;;;;;;20.89;35.91;101266.47;4935099;29;20148;-66
2022/10/30 11:26:59;;;;;;;7.10;3.80;;;;;;;20.90;36.29;101265.41;4932951;29;20142;-68
2022/10/30 11:29:29;;;;;;;6.28;3.22;;;;;;;20.90;36.48;101256.19;4935007;29;20130;-65
2022/10/30 11:32:01;;;;;;;7.55;3.50;;;;;;;20.94;36.30;101271.47;4931212;29;20059;-70
2022/10/30 11:34:33;;;;;;;7.05;3.80;;;;;;;20.95;36.24;101265.69;4916853;29;20047;-68
2022/10/30 11:37:02;;;;;;;7.55;3.65;;;;;;;20.97;36.30;101262.72;4925097;29;20048;-68
2022/10/30 11:39:32;;;;;;;7.53;3.42;;;;;;;21.00;36.24;101265.97;4920345;29;20047;-68
2022/10/30 11:42:06;;;;;;;6.95;3.30;;;;;;;21.04;35.91;101263.66;4926403;28;20460;-68
2022/10/30 11:44:37;;;;;;;7.05;3.67;;;;;;;21.05;36.04;101269.03;4934860;29;20047;-67
2022/10/30 11:47:07;;;;;;;5.90;3.33;;;;;;;21.07;36.10;101261.38;4921611;29;20513;-69
2022/10/30 11:49:47;;;;;;;8.80;3.58;;;;;;;21.11;35.54;101259.03;4931980;29;20040;-67
2022/10/30 11:52:18;;;;;;;8.88;3.53;;;;;;;21.12;35.82;101261.63;4917565;29;20067;-67
2022/10/30 11:54:50;;;;;;;5.97;3.08;;;;;;;21.15;36.15;101252.03;4930503;29;20043;-68
2022/10/30 11:57:29;;;;;;;6.13;3.67;;;;;;;21.17;35.77;101252.72;4923810;28;20468;-67